createdAt,value
2022-11-23T00:01:28.742Z,92581.63
2022-11-23T00:03:57.762Z,92586.78
2022-11-23T00:06:25.455Z,92610.75
2022-11-23T00:08:52.480Z,92613.13
2022-11-23T00:11:20.251Z,92603.53
2022-11-23T00:13:47.213Z,92570.63
2022-11-23T00:16:33.982Z,92613.13
2022-11-23T00:19:02.000Z,92608.72
2022-11-23T00:21:30.556Z,92594.38
2022-11-23T00:23:57.179Z,92574.88
2022-11-23T00:26:23.620Z,92594.78
2022-11-23T00:28:50.175Z,92569.25
2022-11-23T00:31:18.555Z,92581.63
2022-11-23T00:33:50.558Z,92583.22
2022-11-23T00:36:17.377Z,92585.22
2022-11-23T00:38:45.042Z,92598.56
2022-11-23T00:41:14.925Z,92564.88
2022-11-23T00:43:42.080Z,92601.16
2022-11-23T00:46:17.591Z,92603.97
2022-11-23T00:48:45.910Z,92560.50
2022-11-23T00:51:15.605Z,92577.25
2022-11-23T00:53:43.075Z,92573.25
2022-11-23T00:56:09.958Z,92570.06
2022-11-23T00:58:42.728Z,92594.22
2022-11-23T01:01:12.867Z,92597.59
2022-11-23T01:03:43.199Z,92601.97
2022-11-23T01:06:12.747Z,92599.16
2022-11-23T01:08:39.442Z,92580.44
2022-11-23T01:11:08.243Z,92601.97
2022-11-23T01:13:35.951Z,92597.59
2022-11-23T01:16:02.395Z,92581.19
2022-11-23T01:18:35.375Z,92574.34
2022-11-23T01:21:02.023Z,92596.78
2022-11-23T01:23:29.614Z,92579.19
2022-11-23T01:25:57.155Z,92601.16
2022-11-23T01:28:24.888Z,92611.75
2022-11-23T01:30:51.350Z,92596.66
2022-11-23T01:33:17.742Z,92592.41
2022-11-23T01:35:44.185Z,92583.09
2022-11-23T01:38:15.122Z,92609.19
2022-11-23T01:40:44.579Z,92585.25
2022-11-23T01:43:17.280Z,92565.09
2022-11-23T01:45:59.339Z,92592.81
2022-11-23T01:48:54.662Z,92600.78
2022-11-23T01:51:35.848Z,92601.16
2022-11-23T01:54:07.293Z,92585.50
2022-11-23T01:56:39.691Z,92572.06
2022-11-23T01:59:11.191Z,92600.34
2022-11-23T02:01:37.981Z,92572.88
2022-11-23T02:04:08.519Z,92590.81
2022-11-23T02:06:35.277Z,92579.16
2022-11-23T02:09:04.793Z,92599.09
2022-11-23T02:11:31.285Z,92590.72
2022-11-23T02:13:57.817Z,92582.72
2022-11-23T02:16:24.447Z,92601.09
2022-11-23T02:18:52.161Z,92608.56
2022-11-23T02:21:18.928Z,92619.34
2022-11-23T02:24:01.716Z,92592.63
2022-11-23T02:26:38.284Z,92616.16
2022-11-23T02:29:10.038Z,92612.56
2022-11-23T02:31:36.775Z,92615.97
2022-11-23T02:34:03.332Z,92617.09
2022-11-23T02:36:47.597Z,92585.03
2022-11-23T02:39:20.873Z,92616.59
2022-11-23T02:41:52.718Z,92603.03
2022-11-23T02:44:25.246Z,92620.97
2022-11-23T02:46:53.235Z,92599.13
2022-11-23T02:49:21.756Z,92595.09
2022-11-23T02:51:48.197Z,92598.72
2022-11-23T02:54:14.615Z,92621.06
2022-11-23T02:56:41.495Z,92593.91
2022-11-23T02:59:07.897Z,92595.91
2022-11-23T03:01:34.373Z,92602.06
2022-11-23T03:04:00.799Z,92609.06
2022-11-23T03:06:27.292Z,92594.63
2022-11-23T03:08:53.887Z,92599.84
2022-11-23T03:11:26.229Z,92616.19
2022-11-23T03:13:52.679Z,92597.88
2022-11-23T03:16:19.167Z,92589.16
2022-11-23T03:18:45.577Z,92606.69
2022-11-23T03:21:12.015Z,92599.59
2022-11-23T03:23:38.550Z,92587.66
2022-11-23T03:26:09.808Z,92606.69
2022-11-23T03:28:39.041Z,92587.91
2022-11-23T03:31:05.584Z,92610.56
2022-11-23T03:33:32.046Z,92586.28
2022-11-23T03:35:58.470Z,92586.69
2022-11-23T03:38:24.892Z,92578.19
2022-11-23T03:40:51.291Z,92595.50
2022-11-23T03:43:17.746Z,92572.38
2022-11-23T03:45:44.174Z,92598.72
2022-11-23T03:48:11.298Z,92567.47
2022-11-23T03:50:37.701Z,92592.28
2022-11-23T03:53:04.168Z,92585.97
2022-11-23T03:55:30.559Z,92580.63
2022-11-23T03:57:59.633Z,92606.00
2022-11-23T04:00:30.630Z,92594.66
2022-11-23T04:02:57.283Z,92567.13
2022-11-23T04:05:23.762Z,92590.06
2022-11-23T04:07:50.497Z,92581.63
2022-11-23T04:10:18.581Z,92586.53
2022-11-23T04:12:45.728Z,92581.19
2022-11-23T04:15:12.499Z,92586.91
2022-11-23T04:17:39.005Z,92571.94
2022-11-23T04:20:06.204Z,92567.09
2022-11-23T04:22:44.833Z,92562.44
2022-11-23T04:25:11.338Z,92581.63
2022-11-23T04:27:37.795Z,92541.03
2022-11-23T04:30:05.352Z,92586.63
2022-11-23T04:32:31.797Z,92587.31
2022-11-23T04:34:58.183Z,92559.38
2022-11-23T04:37:31.875Z,92582.47
2022-11-23T04:39:58.266Z,92564.88
2022-11-23T04:42:24.719Z,92544.94
2022-11-23T04:44:51.113Z,92533.78
2022-11-23T04:47:17.577Z,92524.97
2022-11-23T04:49:44.065Z,92556.47
2022-11-23T04:52:10.568Z,92531.56
2022-11-23T04:54:36.994Z,92542.06
2022-11-23T04:57:03.468Z,92538.94
2022-11-23T04:59:30.314Z,92552.09
2022-11-23T05:01:57.028Z,92556.47
2022-11-23T05:04:23.444Z,92544.16
2022-11-23T05:06:49.865Z,92548.91
2022-11-23T05:09:25.499Z,92541.50
2022-11-23T05:11:51.938Z,92532.94
2022-11-23T05:14:18.359Z,92536.47
2022-11-23T05:16:44.777Z,92546.84
2022-11-23T05:19:11.283Z,92545.09
2022-11-23T05:21:37.875Z,92527.63
2022-11-23T05:24:04.547Z,92525.53
2022-11-23T05:26:31.063Z,92527.91
2022-11-23T05:28:59.733Z,92546.75
2022-11-23T05:31:33.644Z,92530.63
2022-11-23T05:34:09.488Z,92522.06
2022-11-23T05:36:49.281Z,92518.59
2022-11-23T05:39:22.264Z,92537.94
2022-11-23T05:42:00.608Z,92536.25
2022-11-23T05:44:28.227Z,92518.34
2022-11-23T05:47:00.013Z,92531.22
2022-11-23T05:49:26.542Z,92533.69
2022-11-23T05:51:52.974Z,92521.03
2022-11-23T05:54:19.525Z,92527.09
2022-11-23T05:56:47.967Z,92531.72
2022-11-23T05:59:14.529Z,92545.72
2022-11-23T06:01:40.959Z,92520.47
2022-11-23T06:04:13.412Z,92521.78
2022-11-23T06:06:40.255Z,92536.41
2022-11-23T06:09:06.726Z,92539.81
2022-11-23T06:11:35.420Z,92521.66
2022-11-23T06:14:01.892Z,92536.19
2022-11-23T06:16:28.494Z,92535.03
2022-11-23T06:19:08.789Z,92542.81
2022-11-23T06:21:51.891Z,92550.66
2022-11-23T06:24:18.286Z,92549.78
2022-11-23T06:26:44.695Z,92556.31
2022-11-23T06:29:11.116Z,92515.66
2022-11-23T06:31:43.812Z,92540.69
2022-11-23T06:34:10.202Z,92541.03
2022-11-23T06:36:36.681Z,92557.75
2022-11-23T06:39:13.212Z,92560.50
2022-11-23T06:41:40.765Z,92545.09
2022-11-23T06:44:07.209Z,92536.75
2022-11-23T06:46:34.742Z,92561.78
2022-11-23T06:49:01.218Z,92547.03
2022-11-23T06:51:36.747Z,92553.78
2022-11-23T06:54:03.498Z,92564.09
2022-11-23T06:56:31.812Z,92571.38
2022-11-23T06:58:58.454Z,92573.00
2022-11-23T07:01:24.898Z,92584.88
2022-11-23T07:03:51.504Z,92565.31
2022-11-23T07:06:17.956Z,92573.00
2022-11-23T07:08:45.385Z,92600.50
2022-11-23T07:11:19.049Z,92604.00
2022-11-23T07:13:45.480Z,92591.47
2022-11-23T07:16:11.898Z,92589.97
2022-11-23T07:18:38.334Z,92579.56
2022-11-23T07:21:04.757Z,92590.34
2022-11-23T07:23:31.206Z,92593.09
2022-11-23T07:25:57.641Z,92609.97
2022-11-23T07:28:24.099Z,92594.88
2022-11-23T07:30:52.577Z,92609.72
2022-11-23T07:33:19.184Z,92597.81
2022-11-23T07:35:45.669Z,92575.88
2022-11-23T07:38:12.162Z,92628.66
2022-11-23T07:40:39.531Z,92626.97
2022-11-23T07:43:06.837Z,92599.44
2022-11-23T07:45:34.053Z,92603.75
2022-11-23T07:48:05.424Z,92600.22
2022-11-23T07:50:32.934Z,92615.13
2022-11-23T07:53:01.749Z,92604.47
2022-11-23T07:55:28.542Z,92608.91
2022-11-23T07:57:55.066Z,92584.22
2022-11-23T08:00:22.949Z,92627.50
2022-11-23T08:03:19.416Z,92615.44
2022-11-23T08:05:36.266Z,92603.69
2022-11-23T08:08:03.246Z,92626.81
2022-11-23T08:10:31.399Z,92597.69
2022-11-23T08:13:02.966Z,92625.16
2022-11-23T08:15:29.494Z,92618.25
2022-11-23T08:18:01.433Z,92628.69
2022-11-23T08:20:29.207Z,92619.81
2022-11-23T08:23:05.570Z,92622.78
2022-11-23T08:25:31.953Z,92621.53
2022-11-23T08:28:00.562Z,92627.56
2022-11-23T08:30:29.077Z,92613.66
2022-11-23T08:32:55.851Z,92616.53
2022-11-23T08:35:22.381Z,92587.41
2022-11-23T08:37:48.866Z,92627.38
2022-11-23T08:40:16.653Z,92599.19
2022-11-23T08:42:46.941Z,92586.50
2022-11-23T08:45:13.419Z,92602.47
2022-11-23T08:47:39.794Z,92583.06
2022-11-23T08:50:06.782Z,92609.22
2022-11-23T08:52:33.194Z,92585.09
2022-11-23T08:54:59.657Z,92600.31
2022-11-23T08:57:27.337Z,92593.06
2022-11-23T08:59:53.781Z,92595.56
2022-11-23T09:02:20.191Z,92604.34
2022-11-23T09:04:46.716Z,92573.34
2022-11-23T09:07:13.186Z,92585.28
2022-11-23T09:09:39.719Z,92588.34
2022-11-23T09:12:06.790Z,92588.91
2022-11-23T09:14:33.687Z,92602.09
2022-11-23T09:17:01.884Z,92602.91
2022-11-23T09:19:28.440Z,92590.53
2022-11-23T09:21:54.885Z,92580.97
2022-11-23T09:24:33.851Z,92583.34
2022-11-23T09:27:00.733Z,92596.53
2022-11-23T09:29:27.407Z,92592.16
2022-11-23T09:31:54.123Z,92588.56
2022-11-23T09:34:20.729Z,92571.19
2022-11-23T09:36:47.783Z,92596.13
2022-11-23T09:39:14.328Z,92570.00
2022-11-23T09:42:22.357Z,92581.31
2022-11-23T09:45:08.794Z,92600.84
2022-11-23T09:48:02.590Z,92606.97
2022-11-23T09:50:56.513Z,92605.59
2022-11-23T09:53:28.068Z,92582.78
2022-11-23T09:55:57.793Z,92577.94
2022-11-23T09:58:30.336Z,92584.16
2022-11-23T10:01:12.893Z,92595.47
2022-11-23T10:03:46.984Z,92577.50
2022-11-23T10:06:29.901Z,92589.13
2022-11-23T10:09:02.336Z,92589.63
2022-11-23T10:12:05.225Z,92585.34
2022-11-23T10:14:37.876Z,92590.78
2022-11-23T10:17:15.173Z,92572.00
2022-11-23T10:19:54.129Z,92550.25
2022-11-23T10:22:27.114Z,92560.56
2022-11-23T10:24:54.096Z,92560.44
2022-11-23T10:27:24.081Z,92499.56
2022-11-23T10:29:52.567Z,92565.66
2022-11-23T10:32:33.960Z,92566.66
2022-11-23T10:35:32.399Z,92562.47
2022-11-23T10:38:19.818Z,92560.19
2022-11-23T10:41:10.606Z,92562.34
2022-11-23T10:44:01.409Z,92571.19
2022-11-23T10:46:38.430Z,92568.59
2022-11-23T10:49:19.270Z,92572.50
2022-11-23T10:52:05.752Z,92565.72
2022-11-23T10:54:35.132Z,92568.59
2022-11-23T10:57:20.640Z,92543.88
2022-11-23T11:00:12.989Z,92559.78
2022-11-23T11:02:51.690Z,92549.53
2022-11-23T11:05:53.448Z,92549.81
2022-11-23T11:08:16.993Z,92554.41
2022-11-23T11:10:45.594Z,92549.38
2022-11-23T11:13:21.774Z,92547.47
2022-11-23T11:16:21.074Z,92536.19
2022-11-23T11:18:47.588Z,92528.25
2022-11-23T11:21:29.961Z,92554.31
2022-11-23T11:23:59.770Z,92549.75
2022-11-23T11:26:28.806Z,92543.69
2022-11-23T11:28:57.963Z,92536.13
2022-11-23T11:31:52.287Z,92534.97
2022-11-23T11:34:31.067Z,92542.78
2022-11-23T11:37:06.060Z,92533.31
2022-11-23T11:39:39.978Z,92519.56
2022-11-23T11:42:13.784Z,92532.81
2022-11-23T11:44:49.813Z,92526.97
2022-11-23T11:47:22.631Z,92503.09
2022-11-23T11:49:52.200Z,92514.97
2022-11-23T11:52:23.784Z,92495.53
2022-11-23T11:55:05.622Z,92504.81
2022-11-23T11:57:51.880Z,92505.25
2022-11-23T12:00:20.273Z,92498.44
2022-11-23T12:03:03.558Z,92516.81
2022-11-23T12:05:43.237Z,92515.34
2022-11-23T12:08:25.468Z,92522.78
2022-11-23T12:10:58.033Z,92512.81
2022-11-23T12:13:37.030Z,92484.00
2022-11-23T12:16:25.237Z,92503.75
2022-11-23T12:19:24.771Z,92491.97
2022-11-23T12:22:10.201Z,92502.16
2022-11-23T12:24:55.525Z,92507.25
2022-11-23T12:27:29.196Z,92506.25
2022-11-23T12:30:29.626Z,92511.34
2022-11-23T12:33:30.156Z,92513.38
2022-11-23T12:36:25.498Z,92476.97
2022-11-23T12:39:20.092Z,92473.59
2022-11-23T12:42:11.754Z,92486.06
2022-11-23T12:45:05.100Z,92496.47
2022-11-23T12:47:45.249Z,92470.63
2022-11-23T12:50:35.473Z,92474.84
2022-11-23T12:53:26.347Z,92503.72
2022-11-23T12:56:17.306Z,92484.00
2022-11-23T12:58:45.040Z,92493.09
2022-11-23T13:01:23.308Z,92500.56
2022-11-23T13:03:58.961Z,92494.91
2022-11-23T13:06:25.298Z,92487.19
2022-11-23T13:09:18.770Z,92483.09
2022-11-23T13:12:25.966Z,92486.00
2022-11-23T13:15:19.762Z,92482.59
2022-11-23T13:18:29.167Z,92481.88
2022-11-23T13:21:10.239Z,92487.00
2022-11-23T13:23:40.967Z,92485.84
2022-11-23T13:26:20.300Z,92484.72
2022-11-23T13:28:48.398Z,92492.31
2022-11-23T13:31:15.751Z,92496.94
2022-11-23T13:33:45.032Z,92471.31
2022-11-23T13:37:04.333Z,92485.88
2022-11-23T13:39:41.047Z,92485.81
2022-11-23T13:42:17.891Z,92483.75
2022-11-23T13:44:48.597Z,92474.13
2022-11-23T13:47:24.447Z,92482.19
2022-11-23T13:50:23.639Z,92495.34
2022-11-23T13:52:51.239Z,92485.38
2022-11-23T13:55:47.564Z,92481.72
2022-11-23T13:58:26.362Z,92485.72
2022-11-23T14:00:54.184Z,92479.03
2022-11-23T14:03:42.658Z,92482.19
2022-11-23T14:06:33.724Z,92472.00
2022-11-23T14:09:25.795Z,92482.66
2022-11-23T14:12:13.146Z,92481.75
2022-11-23T14:14:57.249Z,92476.97
2022-11-23T14:17:58.999Z,92470.41
2022-11-23T14:20:46.795Z,92483.34
2022-11-23T14:23:51.510Z,92476.66
2022-11-23T14:26:52.099Z,92483.31
2022-11-23T14:29:29.811Z,92474.94
2022-11-23T14:32:14.461Z,92470.63
2022-11-23T14:35:19.826Z,92470.28
2022-11-23T14:38:18.482Z,92459.47
2022-11-23T14:40:53.439Z,92452.63
2022-11-23T14:43:35.781Z,92476.56
2022-11-23T14:46:04.543Z,92474.19
2022-11-23T14:48:33.297Z,92465.97
2022-11-23T14:51:01.354Z,92457.13
2022-11-23T14:53:33.135Z,92443.53
2022-11-23T14:56:01.239Z,92475.19
2022-11-23T14:58:31.481Z,92471.84
2022-11-23T15:01:02.233Z,92483.22
2022-11-23T15:06:24.992Z,92457.47
2022-11-23T15:09:35.832Z,92471.09
2022-11-23T15:12:48.759Z,92454.94
2022-11-23T15:15:26.912Z,92475.28
2022-11-23T15:18:00.578Z,92473.56
2022-11-23T15:20:46.650Z,92467.38
2022-11-23T15:23:24.745Z,92443.47
2022-11-23T15:25:57.553Z,92471.41
2022-11-23T15:28:27.578Z,92450.25
2022-11-23T15:30:58.883Z,92445.50
2022-11-23T15:33:26.149Z,92464.41
2022-11-23T15:35:55.118Z,92448.66
2022-11-23T15:38:24.300Z,92471.00
2022-11-23T15:40:54.103Z,92440.28
2022-11-23T15:43:20.621Z,92470.50
2022-11-23T15:45:47.047Z,92472.34
2022-11-23T15:48:17.329Z,92469.72
2022-11-23T15:50:54.208Z,92479.59
2022-11-23T15:53:32.446Z,92450.00
2022-11-23T15:56:02.760Z,92479.03
2022-11-23T15:58:30.979Z,92467.25
2022-11-23T16:01:13.263Z,92472.72
2022-11-23T16:03:39.734Z,92471.31
2022-11-23T16:06:15.922Z,92460.19
2022-11-23T16:08:42.348Z,92467.13
2022-11-23T16:11:43.922Z,92461.84
2022-11-23T16:14:11.356Z,92464.97
2022-11-23T16:17:05.876Z,92471.38
2022-11-23T16:19:34.007Z,92471.44
2022-11-23T16:22:06.984Z,92465.59
2022-11-23T16:24:36.038Z,92448.88
2022-11-23T16:27:13.475Z,92468.75
2022-11-23T16:29:40.282Z,92475.06
2022-11-23T16:32:28.727Z,92466.28
2022-11-23T16:35:20.380Z,92466.81
2022-11-23T16:37:52.936Z,92450.81
2022-11-23T16:40:19.848Z,92446.91
2022-11-23T16:42:51.883Z,92465.41
2022-11-23T16:45:19.774Z,92464.50
2022-11-23T16:48:00.659Z,92451.06
2022-11-23T16:50:29.800Z,92463.09
2022-11-23T16:52:56.394Z,92438.81
2022-11-23T16:55:22.828Z,92451.44
2022-11-23T16:57:49.634Z,92440.13
2022-11-23T17:00:19.087Z,92475.22
2022-11-23T17:02:45.992Z,92465.72
2022-11-23T17:05:18.826Z,92476.69
2022-11-23T17:07:45.693Z,92479.72
2022-11-23T17:10:16.462Z,92468.16
2022-11-23T17:12:53.157Z,92467.38
2022-11-23T17:15:21.775Z,92490.91
2022-11-23T17:17:48.687Z,92487.13
2022-11-23T17:20:16.590Z,92486.94
2022-11-23T17:22:43.399Z,92484.13
2022-11-23T17:25:22.391Z,92480.56
2022-11-23T17:27:48.911Z,92476.56
2022-11-23T17:30:22.175Z,92469.81
2022-11-23T17:32:49.648Z,92497.09
2022-11-23T17:35:16.934Z,92488.91
2022-11-23T17:37:43.848Z,92502.69
2022-11-23T17:40:15.776Z,92459.81
2022-11-23T17:42:42.387Z,92494.88
2022-11-23T17:45:09.395Z,92480.16
2022-11-23T17:47:38.118Z,92519.19
2022-11-23T17:50:07.210Z,92509.63
2022-11-23T17:52:33.783Z,92550.28
2022-11-23T17:55:00.228Z,92554.28
2022-11-23T17:57:28.759Z,92604.28
2022-11-23T17:59:57.364Z,92614.78
2022-11-23T18:02:25.812Z,92661.28
2022-11-23T18:04:52.385Z,92669.53
2022-11-23T18:07:25.867Z,92678.81
2022-11-23T18:09:54.414Z,92675.28
2022-11-23T18:12:23.155Z,92681.78
2022-11-23T18:14:49.667Z,92709.78
2022-11-23T18:17:16.485Z,92718.56
2022-11-23T18:19:42.907Z,92712.97
2022-11-23T18:22:09.537Z,92729.75
2022-11-23T18:24:45.389Z,92731.94
2022-11-23T18:27:13.412Z,92724.13
2022-11-23T18:29:40.421Z,92742.41
2022-11-23T18:32:08.317Z,92766.28
2022-11-23T18:34:41.977Z,92756.41
2022-11-23T18:37:08.548Z,92775.28
2022-11-23T18:39:35.730Z,92773.00
2022-11-23T18:42:05.680Z,92793.78
2022-11-23T18:44:49.037Z,92762.31
2022-11-23T18:47:15.610Z,92762.50
2022-11-23T18:49:42.033Z,92796.03
2022-11-23T18:52:09.115Z,92784.53
2022-11-23T18:54:35.555Z,92786.13
2022-11-23T18:57:01.957Z,92760.28
2022-11-23T19:00:01.078Z,92811.34
2022-11-23T19:02:17.050Z,92798.94
2022-11-23T19:04:43.490Z,92791.56
2022-11-23T19:07:13.088Z,92800.28
2022-11-23T19:09:49.091Z,92784.63
2022-11-23T19:12:16.008Z,92803.59
2022-11-23T19:14:48.045Z,92805.47
2022-11-23T19:17:19.741Z,92789.53
2022-11-23T19:20:03.932Z,92796.22
2022-11-23T19:22:33.011Z,92828.16
2022-11-23T19:25:07.980Z,92815.38
2022-11-23T19:27:37.772Z,92829.06
2022-11-23T19:30:05.479Z,92836.31
2022-11-23T19:32:33.334Z,92832.19
2022-11-23T19:35:02.035Z,92842.59
2022-11-23T19:37:29.619Z,92840.19
2022-11-23T19:40:07.802Z,92849.19
2022-11-23T19:42:37.330Z,92854.19
2022-11-23T19:45:10.875Z,92836.72
2022-11-23T19:47:37.301Z,92851.94
2022-11-23T19:50:04.109Z,92806.94
2022-11-23T19:52:55.395Z,92850.88
2022-11-23T19:55:32.203Z,92874.84
2022-11-23T19:57:58.651Z,92859.00
2022-11-23T20:00:25.105Z,92866.47
2022-11-23T20:02:51.502Z,92864.19
2022-11-23T20:05:17.940Z,92874.41
2022-11-23T20:08:10.571Z,92901.44
2022-11-23T20:10:37.032Z,92900.84
2022-11-23T20:13:10.290Z,92915.06
2022-11-23T20:15:36.711Z,92925.84
2022-11-23T20:18:03.196Z,92915.38
2022-11-23T20:20:31.876Z,92904.50
2022-11-23T20:22:58.294Z,92923.97
2022-11-23T20:25:24.727Z,92923.47
2022-11-23T20:27:51.127Z,92925.75
2022-11-23T20:30:25.558Z,92922.56
2022-11-23T20:32:52.126Z,92958.19
2022-11-23T20:35:18.604Z,92946.06
2022-11-23T20:37:45.018Z,92943.03
2022-11-23T20:40:13.809Z,92960.09
2022-11-23T20:42:40.209Z,92965.34
2022-11-23T20:45:06.986Z,92962.94
2022-11-23T20:47:33.463Z,92969.34
2022-11-23T20:50:00.142Z,92979.97
2022-11-23T20:52:29.688Z,92990.81
2022-11-23T20:54:56.294Z,93012.78
2022-11-23T20:57:22.843Z,93028.19
2022-11-23T20:59:49.473Z,93037.25
2022-11-23T21:02:16.531Z,93034.72
2022-11-23T21:04:43.109Z,93029.69
2022-11-23T21:07:09.791Z,93010.06
2022-11-23T21:09:36.627Z,93031.63
2022-11-23T21:12:21.723Z,93003.38
2022-11-23T21:14:48.485Z,93039.78
2022-11-23T21:17:24.493Z,93041.66
2022-11-23T21:19:50.928Z,93016.09
2022-11-23T21:22:18.643Z,93020.84
2022-11-23T21:24:45.170Z,93048.88
2022-11-23T21:27:13.510Z,93048.41
2022-11-23T21:29:46.436Z,93058.09
2022-11-23T21:32:20.374Z,93069.38
2022-11-23T21:34:47.963Z,93062.22
2022-11-23T21:37:15.464Z,93079.34
2022-11-23T21:39:45.538Z,93068.63
2022-11-23T21:42:16.891Z,93084.19
2022-11-23T21:44:43.328Z,93061.47
2022-11-23T21:47:09.813Z,93075.91
2022-11-23T21:49:36.219Z,93049.34
2022-11-23T21:52:09.903Z,93097.00
2022-11-23T21:54:36.551Z,93103.16
2022-11-23T21:57:05.115Z,93109.25
2022-11-23T21:59:31.514Z,93106.41
2022-11-23T22:01:58.633Z,93122.34
2022-11-23T22:04:25.223Z,93126.09
2022-11-23T22:06:51.773Z,93119.19
2022-11-23T22:09:18.169Z,93119.31
2022-11-23T22:11:46.666Z,93105.00
2022-11-23T22:14:15.277Z,93137.91
2022-11-23T22:16:43.092Z,93129.78
2022-11-23T22:19:11.849Z,93119.69
2022-11-23T22:21:39.824Z,93111.53
2022-11-23T22:24:07.380Z,93146.09
2022-11-23T22:26:34.017Z,93137.84
2022-11-23T22:29:06.750Z,93120.44
2022-11-23T22:31:34.691Z,93113.22
2022-11-23T22:34:03.272Z,93096.22
2022-11-23T22:36:33.148Z,93139.66
2022-11-23T22:39:02.268Z,93153.63
2022-11-23T22:41:30.950Z,93155.63
2022-11-23T22:43:57.384Z,93126.31
2022-11-23T22:46:25.116Z,93146.34
2022-11-23T22:48:52.789Z,93163.63
2022-11-23T22:51:23.222Z,93158.31
2022-11-23T22:53:57.472Z,93150.81
2022-11-23T22:56:24.771Z,93157.69
2022-11-23T22:58:51.419Z,93150.03
2022-11-23T23:01:20.730Z,93150.44
2022-11-23T23:03:47.648Z,93167.69
2022-11-23T23:06:20.433Z,93163.38
2022-11-23T23:08:48.093Z,93150.03
2022-11-23T23:11:15.657Z,93136.84
2022-11-23T23:13:42.177Z,93163.63
2022-11-23T23:16:11.726Z,93149.72
2022-11-23T23:18:38.780Z,93148.91
2022-11-23T23:21:14.336Z,93173.38
2022-11-23T23:23:46.287Z,93163.50
2022-11-23T23:26:14.509Z,93147.81
2022-11-23T23:28:41.255Z,93144.63
2022-11-23T23:31:10.941Z,93167.81
2022-11-23T23:33:37.522Z,93171.72
2022-11-23T23:36:09.470Z,93161.78
2022-11-23T23:38:37.243Z,93163.88
2022-11-23T23:41:05.106Z,93179.63
2022-11-23T23:43:31.828Z,93175.09
2022-11-23T23:45:59.781Z,93183.31
2022-11-23T23:48:33.929Z,93176.75
2022-11-23T23:51:12.705Z,93206.94
2022-11-23T23:53:39.559Z,93195.19
2022-11-23T23:56:08.578Z,93178.78
2022-11-23T23:58:35.600Z,93190.78
